createdAt,value
2023-04-17T00:00:12.868Z,27.00
2023-04-17T00:02:41.422Z,26.10
2023-04-17T00:05:10.565Z,26.80
2023-04-17T00:07:39.322Z,23.77
2023-04-17T00:10:09.089Z,26.47
2023-04-17T00:12:37.480Z,23.70
2023-04-17T00:15:07.836Z,24.63
2023-04-17T00:17:35.833Z,24.70
2023-04-17T00:20:07.918Z,24.47
2023-04-17T00:22:35.920Z,26.20
2023-04-17T00:25:10.399Z,26.30
2023-04-17T00:27:38.383Z,23.90
2023-04-17T00:30:09.123Z,26.13
2023-04-17T00:32:37.064Z,24.50
2023-04-17T00:35:07.077Z,28.60
2023-04-17T00:37:36.390Z,23.77
2023-04-17T00:40:04.443Z,24.73
2023-04-17T00:42:32.321Z,29.97
2023-04-17T00:45:04.373Z,22.50
2023-04-17T00:47:33.820Z,28.00
2023-04-17T00:50:01.837Z,23.03
2023-04-17T00:52:30.926Z,25.07
2023-04-17T00:55:00.084Z,25.33
2023-04-17T00:57:28.120Z,22.33
2023-04-17T00:59:57.681Z,23.30
2023-04-17T01:02:26.204Z,23.20
2023-04-17T01:04:55.591Z,25.70
2023-04-17T01:07:23.667Z,24.93
2023-04-17T01:09:51.621Z,25.13
2023-04-17T01:12:20.158Z,27.67
2023-04-17T01:14:48.506Z,26.10
2023-04-17T01:17:18.941Z,24.40
2023-04-17T01:19:47.202Z,24.87
2023-04-17T01:22:17.461Z,26.17
2023-04-17T01:24:46.995Z,27.37
2023-04-17T01:27:15.639Z,27.60
2023-04-17T01:29:45.848Z,28.07
2023-04-17T01:32:13.762Z,30.80
2023-04-17T01:34:41.716Z,28.67
2023-04-17T01:37:09.689Z,29.17
2023-04-17T01:39:37.667Z,29.70
2023-04-17T01:42:07.252Z,32.23
2023-04-17T01:44:37.414Z,30.90
2023-04-17T01:47:05.492Z,34.23
2023-04-17T01:49:33.802Z,33.43
2023-04-17T01:52:01.599Z,34.53
2023-04-17T01:54:29.499Z,34.73
2023-04-17T01:56:57.878Z,32.03
2023-04-17T01:59:27.245Z,32.73
2023-04-17T02:01:56.345Z,35.23
2023-04-17T02:04:24.513Z,36.60
2023-04-17T02:06:52.677Z,33.93
2023-04-17T02:09:20.616Z,34.20
2023-04-17T02:11:48.587Z,36.50
2023-04-17T02:14:17.035Z,34.07
2023-04-17T02:16:46.616Z,34.17
2023-04-17T02:19:14.466Z,38.07
2023-04-17T02:21:42.429Z,38.43
2023-04-17T02:24:10.416Z,41.77
2023-04-17T02:26:38.301Z,38.77
2023-04-17T02:29:06.314Z,36.10
2023-04-17T02:31:34.730Z,44.00
2023-04-17T02:34:04.022Z,40.57
2023-04-17T02:36:32.664Z,40.67
2023-04-17T02:39:00.723Z,40.77
2023-04-17T02:41:28.649Z,34.53
2023-04-17T02:43:56.796Z,42.30
2023-04-17T02:46:24.725Z,38.13
2023-04-17T02:48:52.650Z,40.60
2023-04-17T02:51:23.690Z,40.73
2023-04-17T02:53:51.592Z,44.10
2023-04-17T02:56:19.488Z,40.03
2023-04-17T02:58:47.391Z,42.57
2023-04-17T03:01:15.406Z,41.40
2023-04-17T03:03:45.940Z,43.50
2023-04-17T03:06:15.851Z,42.20
2023-04-17T03:08:45.318Z,43.90
2023-04-17T03:11:13.247Z,51.90
2023-04-17T03:13:41.057Z,42.97
2023-04-17T03:16:09.214Z,43.67
2023-04-17T03:18:41.008Z,42.20
2023-04-17T03:21:09.550Z,47.70
2023-04-17T03:23:37.616Z,45.93
2023-04-17T03:26:08.460Z,39.83
2023-04-17T03:28:36.311Z,47.93
2023-04-17T03:31:05.056Z,45.40
2023-04-17T03:33:34.829Z,41.40
2023-04-17T03:36:03.744Z,42.00
2023-04-17T03:38:31.781Z,49.93
2023-04-17T03:40:59.768Z,45.63
2023-04-17T03:43:29.313Z,48.73
2023-04-17T03:45:57.227Z,44.40
2023-04-17T03:48:25.255Z,45.80
2023-04-17T03:50:53.300Z,49.57
2023-04-17T03:53:21.477Z,49.97
2023-04-17T03:55:50.623Z,48.73
2023-04-17T03:58:31.742Z,50.43
2023-04-17T04:01:02.035Z,57.33
2023-04-17T04:03:33.540Z,49.57
2023-04-17T04:06:01.684Z,51.43
2023-04-17T04:08:29.660Z,50.90
2023-04-17T04:10:57.526Z,54.63
2023-04-17T04:13:37.164Z,50.80
2023-04-17T04:16:05.873Z,52.43
2023-04-17T04:18:36.793Z,61.03
2023-04-17T04:21:06.264Z,53.17
2023-04-17T04:23:39.744Z,53.57
2023-04-17T04:26:08.002Z,50.23
2023-04-17T04:28:43.959Z,54.23
2023-04-17T04:31:32.559Z,54.90
2023-04-17T04:34:03.370Z,55.73
2023-04-17T04:36:31.228Z,58.10
2023-04-17T04:39:11.950Z,58.57
2023-04-17T04:41:45.840Z,59.90
2023-04-17T04:44:16.018Z,61.97
2023-04-17T04:46:45.203Z,60.23
2023-04-17T04:49:13.642Z,63.03
2023-04-17T04:51:41.539Z,68.60
2023-04-17T04:54:10.666Z,68.03
2023-04-17T04:56:46.629Z,66.70
2023-04-17T04:59:17.971Z,67.47
2023-04-17T05:01:52.262Z,65.47
2023-04-17T05:04:22.945Z,70.80
2023-04-17T05:06:54.817Z,70.43
2023-04-17T05:09:23.813Z,65.47
2023-04-17T05:11:57.272Z,72.63
2023-04-17T05:14:26.645Z,86.33
2023-04-17T05:16:55.672Z,69.83
2023-04-17T05:19:24.035Z,68.00
2023-04-17T05:22:02.345Z,69.00
2023-04-17T05:24:33.820Z,71.53
2023-04-17T05:27:02.126Z,67.87
2023-04-17T05:29:32.990Z,68.83
2023-04-17T05:32:01.134Z,60.23
2023-04-17T05:34:49.433Z,67.17
2023-04-17T05:37:20.160Z,60.50
2023-04-17T05:39:48.054Z,59.40
2023-04-17T05:42:15.918Z,57.53
2023-04-17T05:44:45.884Z,62.57
2023-04-17T05:47:13.776Z,59.77
2023-04-17T05:49:42.468Z,58.10
2023-04-17T05:52:10.503Z,52.20
2023-04-17T05:54:42.781Z,55.97
2023-04-17T05:57:10.758Z,59.17
2023-04-17T05:59:39.174Z,53.93
2023-04-17T06:02:10.531Z,55.60
2023-04-17T06:04:39.115Z,50.37
2023-04-17T06:07:08.175Z,53.07
2023-04-17T06:09:37.343Z,46.37
2023-04-17T06:12:05.488Z,44.47
2023-04-17T06:14:33.967Z,46.23
2023-04-17T06:17:06.342Z,42.13
2023-04-17T06:19:35.922Z,41.23
2023-04-17T06:22:06.891Z,45.23
2023-04-17T06:24:34.713Z,42.80
2023-04-17T06:27:03.726Z,39.10
2023-04-17T06:29:31.611Z,39.47
2023-04-17T06:31:59.497Z,41.07
2023-04-17T06:34:27.954Z,38.00
2023-04-17T06:36:59.084Z,42.33
2023-04-17T06:39:27.413Z,43.03
2023-04-17T06:41:56.238Z,34.47
2023-04-17T06:44:28.268Z,34.67
2023-04-17T06:46:56.198Z,39.43
2023-04-17T06:49:24.936Z,35.93
2023-04-17T06:51:52.826Z,33.03
2023-04-17T06:54:22.000Z,28.37
2023-04-17T06:56:49.885Z,33.20
2023-04-17T06:59:18.190Z,33.07
2023-04-17T07:01:46.371Z,34.87
2023-04-17T07:04:14.373Z,28.50
2023-04-17T07:06:42.313Z,24.17
2023-04-17T07:09:10.141Z,22.13
2023-04-17T07:11:39.433Z,22.77
2023-04-17T07:14:07.759Z,21.40
2023-04-17T07:16:35.690Z,20.20
2023-04-17T07:19:03.639Z,25.70
2023-04-17T07:21:32.652Z,20.40
2023-04-17T07:24:01.697Z,18.20
2023-04-17T07:26:29.632Z,18.83
2023-04-17T07:28:58.835Z,18.97
2023-04-17T07:31:28.359Z,18.60
2023-04-17T07:33:56.400Z,21.37
2023-04-17T07:36:24.296Z,21.27
2023-04-17T07:38:52.101Z,23.00
2023-04-17T07:41:21.665Z,22.50
2023-04-17T07:43:50.057Z,23.60
2023-04-17T07:46:19.332Z,20.27
2023-04-17T07:48:47.511Z,25.30
2023-04-17T07:51:16.884Z,25.80
2023-04-17T07:53:44.748Z,21.63
2023-04-17T07:56:13.205Z,22.47
2023-04-17T07:58:42.093Z,28.23
2023-04-17T08:01:10.044Z,21.23
2023-04-17T08:03:41.960Z,24.60
2023-04-17T08:06:10.081Z,25.23
2023-04-17T08:08:39.262Z,33.63
2023-04-17T08:11:07.151Z,24.53
2023-04-17T08:13:35.043Z,28.50
2023-04-17T08:16:03.572Z,24.73
2023-04-17T08:18:32.409Z,22.93
2023-04-17T08:21:01.735Z,23.60
2023-04-17T08:23:29.608Z,23.37
2023-04-17T08:26:00.368Z,25.77
2023-04-17T08:28:28.894Z,25.23
2023-04-17T08:30:57.179Z,24.60
2023-04-17T08:33:27.148Z,26.30
2023-04-17T08:35:55.032Z,21.70
2023-04-17T08:38:24.255Z,23.77
2023-04-17T08:40:54.555Z,23.83
2023-04-17T08:43:22.680Z,27.10
2023-04-17T08:45:54.092Z,22.83
2023-04-17T08:48:23.024Z,24.20
2023-04-17T08:50:52.590Z,24.00
2023-04-17T08:53:21.293Z,24.60
2023-04-17T08:55:50.568Z,24.43
2023-04-17T08:58:18.442Z,25.53
2023-04-17T09:00:46.593Z,21.57
2023-04-17T09:03:15.422Z,23.63
2023-04-17T09:05:46.139Z,22.33
2023-04-17T09:08:15.774Z,24.00
2023-04-17T09:10:44.600Z,21.00
2023-04-17T09:13:18.216Z,19.30
2023-04-17T09:15:48.435Z,22.43
2023-04-17T09:18:24.975Z,20.83
2023-04-17T09:20:52.987Z,21.17
2023-04-17T09:23:22.796Z,19.37
2023-04-17T09:26:06.745Z,18.37
2023-04-17T09:28:39.357Z,19.07
2023-04-17T09:31:08.830Z,15.83
2023-04-17T09:33:37.912Z,15.53
2023-04-17T09:36:22.310Z,18.73
2023-04-17T09:38:50.466Z,15.60
2023-04-17T09:41:28.272Z,15.00
2023-04-17T09:44:01.095Z,15.43
2023-04-17T09:46:33.393Z,13.90
2023-04-17T09:49:02.492Z,13.00
2023-04-17T09:51:31.379Z,15.53
2023-04-17T09:54:00.246Z,12.30
2023-04-17T09:56:29.640Z,17.90
2023-04-17T09:58:59.153Z,25.17
2023-04-17T10:01:27.700Z,24.83
2023-04-17T10:03:56.022Z,19.50
2023-04-17T10:06:24.254Z,38.17
2023-04-17T10:08:52.339Z,30.63
2023-04-17T10:11:21.106Z,16.33
2023-04-17T10:13:59.302Z,26.20
2023-04-17T10:16:36.842Z,24.07
2023-04-17T10:19:30.375Z,19.27
2023-04-17T10:22:30.051Z,14.23
2023-04-17T10:25:23.942Z,16.40
2023-04-17T10:27:53.561Z,14.93
2023-04-17T10:30:23.743Z,17.83
2023-04-17T10:33:29.119Z,17.40
2023-04-17T10:35:56.932Z,9.60
2023-04-17T10:38:33.425Z,7.40
2023-04-17T10:41:05.922Z,7.30
2023-04-17T10:43:34.280Z,7.63
2023-04-17T10:46:04.047Z,7.63
2023-04-17T10:48:34.828Z,8.57
2023-04-17T10:51:23.674Z,6.63
2023-04-17T10:53:52.423Z,9.67
2023-04-17T10:56:21.107Z,8.17
2023-04-17T10:58:59.791Z,7.47
2023-04-17T11:01:30.268Z,7.80
2023-04-17T11:04:00.565Z,6.70
2023-04-17T11:06:29.382Z,6.13
2023-04-17T11:08:57.966Z,7.47
2023-04-17T11:11:35.137Z,5.40
2023-04-17T11:14:14.586Z,5.30
2023-04-17T11:16:44.610Z,5.43
2023-04-17T11:19:18.865Z,5.07
2023-04-17T11:21:47.331Z,5.73
2023-04-17T11:24:15.686Z,6.87
2023-04-17T11:26:44.198Z,4.07
2023-04-17T11:29:15.897Z,4.40
2023-04-17T11:31:43.860Z,3.00
2023-04-17T11:34:11.982Z,6.17
2023-04-17T11:36:41.260Z,5.63
2023-04-17T11:39:10.189Z,7.03
2023-04-17T11:41:38.236Z,4.70
2023-04-17T11:44:09.921Z,3.47
2023-04-17T11:46:37.946Z,2.17
2023-04-17T11:49:06.867Z,2.00
2023-04-17T11:51:34.919Z,2.40
2023-04-17T11:54:04.705Z,2.23
2023-04-17T11:56:32.547Z,2.13
2023-04-17T11:59:02.020Z,1.97
2023-04-17T12:01:29.936Z,2.30
2023-04-17T12:03:59.382Z,2.10
2023-04-17T12:06:37.706Z,2.40
2023-04-17T12:09:07.924Z,2.30
2023-04-17T12:11:36.473Z,2.20
2023-04-17T12:14:05.601Z,2.37
2023-04-17T12:16:33.536Z,1.90
2023-04-17T12:19:01.525Z,2.23
2023-04-17T12:21:29.463Z,3.13
2023-04-17T12:23:57.299Z,3.90
2023-04-17T12:26:30.669Z,2.77
2023-04-17T12:28:58.616Z,3.37
2023-04-17T12:31:26.494Z,2.20
2023-04-17T12:33:54.514Z,2.63
2023-04-17T12:36:22.459Z,2.67
2023-04-17T12:38:50.391Z,2.97
2023-04-17T12:41:18.297Z,2.20
2023-04-17T12:43:47.526Z,3.90
2023-04-17T12:46:15.609Z,3.57
2023-04-17T12:48:43.567Z,2.20
2023-04-17T12:51:11.887Z,2.80
2023-04-17T12:53:39.765Z,2.40
2023-04-17T12:56:08.411Z,2.53
2023-04-17T12:58:36.249Z,2.53
2023-04-17T13:01:08.621Z,3.10
2023-04-17T13:03:36.842Z,4.03
2023-04-17T13:06:05.307Z,3.20
2023-04-17T13:08:33.103Z,2.87
2023-04-17T13:11:03.709Z,3.43
2023-04-17T13:13:31.604Z,2.97
2023-04-17T13:15:59.578Z,3.30
2023-04-17T13:18:28.822Z,3.27
2023-04-17T13:20:58.028Z,3.27
2023-04-17T13:23:25.868Z,2.20
2023-04-17T13:25:53.886Z,3.63
2023-04-17T13:28:22.234Z,3.03
2023-04-17T13:30:50.135Z,4.13
2023-04-17T13:33:18.126Z,3.40
2023-04-17T13:35:47.414Z,7.60
2023-04-17T13:38:15.573Z,2.63
2023-04-17T13:40:43.821Z,2.30
2023-04-17T13:43:11.664Z,1.97
2023-04-17T13:45:39.666Z,2.00
2023-04-17T13:48:07.533Z,4.17
2023-04-17T13:50:35.484Z,2.40
2023-04-17T13:55:01.787Z,2.23
2023-04-17T13:57:29.717Z,2.40
2023-04-17T13:59:58.576Z,2.03
2023-04-17T14:02:26.884Z,2.30
2023-04-17T14:04:54.993Z,2.17
2023-04-17T14:07:23.006Z,4.83
2023-04-17T14:09:51.007Z,4.40
2023-04-17T14:12:21.708Z,2.77
2023-04-17T14:14:49.604Z,2.60
2023-04-17T14:17:18.117Z,4.60
2023-04-17T14:19:46.086Z,2.70
2023-04-17T14:22:13.969Z,2.20
2023-04-17T14:24:41.768Z,4.90
2023-04-17T14:27:12.785Z,2.90
2023-04-17T14:29:42.062Z,2.60
2023-04-17T14:32:10.568Z,2.57
2023-04-17T14:34:38.399Z,3.30
2023-04-17T14:37:06.327Z,2.77
2023-04-17T14:39:34.189Z,3.43
2023-04-17T14:42:02.427Z,3.10
2023-04-17T14:44:30.784Z,3.20
2023-04-17T14:47:00.143Z,3.37
2023-04-17T14:49:28.018Z,3.67
2023-04-17T14:51:56.008Z,5.30
2023-04-17T14:54:23.861Z,3.50
2023-04-17T14:56:51.709Z,4.03
2023-04-17T14:59:19.636Z,3.60
2023-04-17T15:01:48.597Z,3.43
2023-04-17T15:04:19.065Z,3.40
2023-04-17T15:06:47.716Z,6.03
2023-04-17T15:09:15.730Z,7.03
2023-04-17T15:11:43.655Z,4.07
2023-04-17T15:14:12.137Z,6.70
2023-04-17T15:16:40.223Z,4.43
2023-04-17T15:19:08.150Z,5.20
2023-04-17T15:21:37.427Z,5.23
2023-04-17T15:24:06.127Z,4.43
2023-04-17T15:26:34.438Z,4.43
2023-04-17T15:29:03.031Z,5.17
2023-04-17T15:31:30.906Z,4.60
2023-04-17T15:33:58.772Z,4.83
2023-04-17T15:36:31.298Z,5.90
2023-04-17T15:39:00.880Z,5.50
2023-04-17T15:41:29.401Z,4.53
2023-04-17T15:43:57.313Z,6.03
2023-04-17T15:46:25.219Z,4.73
2023-04-17T15:49:07.456Z,4.60
2023-04-17T15:51:37.019Z,7.30
2023-04-17T15:54:07.455Z,6.10
2023-04-17T15:56:35.738Z,4.50
2023-04-17T15:59:03.572Z,5.03
2023-04-17T16:01:31.605Z,8.33
2023-04-17T16:03:59.650Z,4.20
2023-04-17T16:06:28.119Z,4.20
2023-04-17T16:08:56.328Z,6.80
2023-04-17T16:11:25.705Z,6.57
2023-04-17T16:13:53.618Z,4.40
2023-04-17T16:16:24.385Z,3.77
2023-04-17T16:18:52.376Z,3.73
2023-04-17T16:21:20.408Z,4.27
2023-04-17T16:23:49.436Z,5.10
2023-04-17T16:26:17.279Z,3.20
2023-04-17T16:28:46.804Z,3.43
2023-04-17T16:31:16.924Z,3.00
2023-04-17T16:33:45.233Z,4.77
2023-04-17T16:36:13.132Z,5.13
2023-04-17T16:38:41.028Z,4.40
2023-04-17T16:41:09.013Z,3.20
2023-04-17T16:43:36.990Z,3.63
2023-04-17T16:46:18.489Z,2.70
2023-04-17T16:48:50.834Z,3.17
2023-04-17T16:51:20.343Z,3.00
2023-04-17T16:53:48.340Z,3.70
2023-04-17T16:56:16.369Z,2.97
2023-04-17T16:58:44.325Z,3.43
2023-04-17T17:01:13.900Z,3.30
2023-04-17T17:06:11.208Z,3.40
2023-04-17T17:08:39.162Z,3.73
2023-04-17T17:11:07.238Z,3.73
2023-04-17T17:13:35.560Z,3.30
2023-04-17T17:16:04.487Z,3.47
2023-04-17T17:18:34.618Z,3.90
2023-04-17T17:21:02.820Z,3.90
2023-04-17T17:23:31.539Z,4.70
2023-04-17T17:25:59.621Z,5.20
2023-04-17T17:28:27.684Z,4.10
2023-04-17T17:31:00.574Z,3.57
2023-04-17T17:33:28.540Z,4.63
2023-04-17T17:35:57.865Z,6.00
2023-04-17T17:38:28.444Z,8.33
2023-04-17T17:40:56.553Z,4.20
2023-04-17T17:43:24.500Z,9.47
2023-04-17T17:45:52.461Z,5.60
2023-04-17T17:48:20.778Z,5.83
2023-04-17T17:50:48.881Z,4.90
2023-04-17T17:53:21.373Z,6.47
2023-04-17T17:55:54.252Z,7.03
2023-04-17T17:58:22.319Z,7.20
2023-04-17T18:00:50.231Z,11.23
2023-04-17T18:03:18.989Z,6.63
2023-04-17T18:05:47.579Z,10.73
2023-04-17T18:08:16.127Z,8.60
2023-04-17T18:10:45.342Z,6.30
2023-04-17T18:13:13.502Z,13.30
2023-04-17T18:15:41.913Z,12.80
2023-04-17T18:18:12.873Z,13.63
2023-04-17T18:20:40.860Z,4.80
2023-04-17T18:23:09.006Z,8.00
2023-04-17T18:25:37.571Z,5.57
2023-04-17T18:28:07.066Z,8.10
2023-04-17T18:30:35.067Z,10.77
2023-04-17T18:33:03.071Z,5.03
2023-04-17T18:35:31.411Z,9.73
2023-04-17T18:38:34.745Z,9.90
2023-04-17T18:41:07.374Z,8.07
2023-04-17T18:43:36.787Z,9.90
2023-04-17T18:46:07.478Z,8.10
2023-04-17T18:48:35.674Z,10.47
2023-04-17T18:51:11.380Z,10.30
2023-04-17T18:53:39.581Z,11.33
2023-04-17T18:56:08.606Z,6.00
2023-04-17T18:58:40.236Z,8.63
2023-04-17T19:01:10.216Z,7.13
2023-04-17T19:03:38.291Z,10.33
2023-04-17T19:06:06.730Z,6.87
2023-04-17T19:08:34.670Z,6.10
2023-04-17T19:11:02.534Z,8.23
2023-04-17T19:13:30.465Z,7.40
2023-04-17T19:15:59.884Z,10.50
2023-04-17T19:18:29.228Z,7.40
2023-04-17T19:20:57.195Z,8.90
2023-04-17T19:23:25.197Z,7.47
2023-04-17T19:25:54.844Z,6.07
2023-04-17T19:28:23.172Z,8.23
2023-04-17T19:30:51.130Z,7.97
2023-04-17T19:33:21.826Z,5.73
2023-04-17T19:35:49.966Z,5.97
2023-04-17T19:38:17.825Z,10.20
2023-04-17T19:40:47.808Z,7.77
2023-04-17T19:43:15.668Z,8.87
2023-04-17T19:45:43.965Z,6.80
2023-04-17T19:48:11.957Z,8.10
2023-04-17T19:50:41.355Z,7.13
2023-04-17T19:53:09.708Z,11.23
2023-04-17T19:55:37.575Z,7.20
2023-04-17T19:58:05.718Z,15.30
2023-04-17T20:00:33.689Z,6.37
2023-04-17T20:03:01.741Z,8.53
2023-04-17T20:05:30.498Z,16.27
2023-04-17T20:07:59.703Z,6.53
2023-04-17T20:10:28.087Z,6.47
2023-04-17T20:12:55.910Z,8.60
2023-04-17T20:15:23.776Z,10.87
2023-04-17T20:17:52.314Z,8.40
2023-04-17T20:20:20.220Z,11.13
2023-04-17T20:22:48.071Z,7.83
2023-04-17T20:25:18.635Z,8.63
2023-04-17T20:27:46.510Z,15.43
2023-04-17T20:30:15.245Z,7.83
2023-04-17T20:32:43.580Z,9.30
2023-04-17T20:35:11.694Z,7.00
2023-04-17T20:37:40.722Z,10.53
2023-04-17T20:40:11.066Z,8.50
2023-04-17T20:42:40.664Z,10.57
2023-04-17T20:45:09.449Z,8.30
2023-04-17T20:47:37.758Z,9.17
2023-04-17T20:50:06.377Z,13.10
2023-04-17T20:52:35.758Z,7.90
2023-04-17T20:55:03.666Z,6.70
2023-04-17T20:57:31.654Z,9.73
2023-04-17T21:00:00.928Z,7.47
2023-04-17T21:02:30.675Z,9.70
2023-04-17T21:04:59.730Z,9.70
2023-04-17T21:07:27.566Z,10.07
2023-04-17T21:09:55.514Z,7.10
2023-04-17T21:12:23.898Z,11.77
2023-04-17T21:14:51.901Z,9.37
2023-04-17T21:17:21.184Z,7.83
2023-04-17T21:19:52.126Z,7.10
2023-04-17T21:22:19.951Z,10.93
2023-04-17T21:24:47.875Z,6.47
2023-04-17T21:27:15.756Z,7.50
2023-04-17T21:29:43.649Z,9.90
2023-04-17T21:32:11.660Z,10.60
2023-04-17T21:34:41.401Z,9.00
2023-04-17T21:37:09.732Z,10.50
2023-04-17T21:39:37.690Z,7.47
2023-04-17T21:42:05.577Z,8.80
2023-04-17T21:44:33.485Z,11.17
2023-04-17T21:47:01.406Z,8.23
2023-04-17T21:49:29.283Z,8.20
2023-04-17T21:51:59.476Z,10.50
2023-04-17T21:54:28.191Z,6.87
2023-04-17T21:56:56.029Z,9.50
2023-04-17T21:59:24.529Z,7.33
2023-04-17T22:01:52.377Z,7.70
2023-04-17T22:04:20.385Z,8.40
2023-04-17T22:06:48.387Z,9.70
2023-04-17T22:09:17.596Z,14.13
2023-04-17T22:11:45.807Z,7.73
2023-04-17T22:14:14.007Z,8.10
2023-04-17T22:16:41.897Z,10.80
2023-04-17T22:19:10.140Z,12.10
2023-04-17T22:21:37.967Z,8.10
2023-04-17T22:24:06.179Z,11.50
2023-04-17T22:26:35.381Z,8.47
2023-04-17T22:29:03.201Z,7.73
2023-04-17T22:31:31.352Z,10.17
2023-04-17T22:33:59.243Z,10.53
2023-04-17T22:36:30.253Z,10.37
2023-04-17T22:38:58.077Z,8.30
2023-04-17T22:41:25.872Z,9.67
2023-04-17T22:43:55.091Z,18.30
2023-04-17T22:46:23.023Z,9.93
2023-04-17T22:48:50.816Z,10.80
2023-04-17T22:51:18.642Z,9.30
2023-04-17T22:53:46.912Z,7.70
2023-04-17T22:56:14.771Z,8.73
2023-04-17T22:58:42.619Z,9.60
2023-04-17T23:01:11.857Z,9.93
2023-04-17T23:03:40.171Z,9.00
2023-04-17T23:06:08.683Z,9.53
2023-04-17T23:08:36.903Z,9.53
2023-04-17T23:11:05.969Z,9.33
2023-04-17T23:13:33.862Z,11.47
2023-04-17T23:16:01.935Z,10.10
2023-04-17T23:18:31.207Z,9.70
2023-04-17T23:20:59.164Z,14.63
2023-04-17T23:23:27.029Z,8.50
2023-04-17T23:25:54.905Z,10.17
2023-04-17T23:28:22.712Z,11.00
2023-04-17T23:30:50.525Z,8.63
2023-04-17T23:33:18.360Z,8.10
2023-04-17T23:35:47.519Z,11.40
2023-04-17T23:38:15.313Z,10.33
2023-04-17T23:40:43.273Z,12.40
2023-04-17T23:43:11.139Z,8.60
2023-04-17T23:45:39.046Z,9.37
2023-04-17T23:48:07.180Z,8.60
2023-04-17T23:50:35.165Z,14.80
2023-04-17T23:53:04.516Z,8.13
2023-04-17T23:55:32.396Z,9.83
2023-04-17T23:58:00.477Z,7.00
